Startpagina
METAR-TAF:

METAR-TAF

Vliegvelden :

Fort-de-France, Martinique

breedte: 14-36N, lengte: 061-00W, hoogte: 5 m

Actueel weer

Dit bericht is 23 minuten geleden gemaakt, om 17:30 UTC
Wind 5 kt uit het zuidzuidoosten, variërend tussen het oostzuidoosten en het zuidwesten
Temperatuur 31°C
Vochtigheid 63%
Druk 1009 hPa
Zicht 10 km of meer

METAR: TFFF 181730Z AUTO 16005KT 110V220 9999 BKN033/// BKN049/// OVC076/// ///TCU 31/23 Q1009 BECMG SCT020

Tijdstip: 13:53 (17:53 UTC)

Verwachting

Dit bericht is 53 minuten geleden gemaakt, om 17:00 UTC
Verwachting geldig van 18 om 18 UTC tot 19 om 18 UTC
Wind 7 kt uit het zuidzuidoosten
Zicht 10 km of meer
Verspreide wolken op 2000 ft
Kans 30% :
Tijdelijke
van 19 om 02 UTC tot 19 om 06 UTC
Zicht: 4000 m
Verspreide wolken op 1800 ft, Stapelwolken.
regenbuien
Wijzigt naar
van 19 om 12 UTC tot 19 om 14 UTC
Weinig wolken op 2800 ft

TAF: TFFF 181700Z 1818/1918 16007KT 9999 SCT020 PROB30 TEMPO 1902/1906 4000 SHRA SCT018TCU BECMG 1912/1914 FEW028

Waarnemingen en weersverwachtingen van meer dan 4000 vliegvelden (METAR en TAF).

De beschikbare stations zijn de gele en rode punten op de kaart.

Ga met uw muis naar het station om de naam te zien.

Klik dan om waarnemingen en weersverwachtingen te zien.

kaart wijzigen: klik op de groene knoppen met een zwart kruis om in te zoomen, op de groene knop met een streepje om uit te zoomen of op de groene pijlen voor aangrenzende kaarten.


METAR-TAF: